createdAt,value
2017-10-28T00:00:02.043Z,10.40
2017-10-28T00:02:30.475Z,10.30
2017-10-28T00:04:58.175Z,10.30
2017-10-28T00:07:25.835Z,10.10
2017-10-28T00:09:54.300Z,10.40
2017-10-28T00:12:21.960Z,10.40
2017-10-28T00:14:49.652Z,10.30
2017-10-28T00:17:17.310Z,10.20
2017-10-28T00:19:45.769Z,10.10
2017-10-28T00:22:13.442Z,10.10
2017-10-28T00:24:41.901Z,10.00
2017-10-28T00:27:09.575Z,10.00
2017-10-28T00:29:38.034Z,9.90
2017-10-28T00:35:12.311Z,10.10
2017-10-28T00:37:39.990Z,10.00
2017-10-28T00:40:07.737Z,10.10
2017-10-28T00:42:35.410Z,9.80
2017-10-28T00:45:03.117Z,9.90
2017-10-28T00:47:31.539Z,10.00
2017-10-28T00:49:59.239Z,10.00
2017-10-28T00:52:26.896Z,9.80
2017-10-28T00:54:54.591Z,9.80
2017-10-28T00:57:23.019Z,9.70
2017-10-28T00:59:50.707Z,9.70
2017-10-28T01:02:18.438Z,9.50
2017-10-28T01:04:46.128Z,9.50
2017-10-28T01:07:13.787Z,9.40
2017-10-28T01:09:42.251Z,9.20
2017-10-28T01:12:09.922Z,9.30
2017-10-28T01:14:38.011Z,9.20
2017-10-28T01:17:06.450Z,9.40
2017-10-28T01:19:34.169Z,9.40
2017-10-28T01:22:01.855Z,9.50
2017-10-28T01:24:29.579Z,9.50
2017-10-28T01:26:57.240Z,9.20
2017-10-28T01:29:24.907Z,9.10
2017-10-28T01:31:52.616Z,9.00
2017-10-28T01:34:20.276Z,8.90
2017-10-28T01:36:47.987Z,8.90
2017-10-28T01:39:15.651Z,8.80
2017-10-28T01:41:43.364Z,9.00
2017-10-28T01:44:11.031Z,8.90
2017-10-28T01:46:39.493Z,9.10
2017-10-28T01:49:07.147Z,9.10
2017-10-28T01:51:34.846Z,9.10
2017-10-28T01:54:03.287Z,9.10
2017-10-28T01:56:30.986Z,9.20
2017-10-28T01:58:59.408Z,9.00
2017-10-28T02:01:27.112Z,8.90
2017-10-28T02:03:55.535Z,8.90
2017-10-28T02:06:23.244Z,8.90
2017-10-28T02:08:51.689Z,8.90
2017-10-28T02:11:19.392Z,8.90
2017-10-28T02:13:47.811Z,8.80
2017-10-28T02:16:15.567Z,8.80
2017-10-28T02:18:43.224Z,8.80
2017-10-28T02:21:10.970Z,8.80
2017-10-28T02:23:38.656Z,8.70
2017-10-28T02:26:06.364Z,8.60
2017-10-28T02:28:34.823Z,8.40
2017-10-28T02:31:02.528Z,8.30
2017-10-28T02:33:30.187Z,8.20
2017-10-28T02:35:57.883Z,7.90
2017-10-28T02:38:25.547Z,7.90
2017-10-28T02:40:53.252Z,8.10
2017-10-28T02:43:20.923Z,8.30
2017-10-28T02:45:48.638Z,8.50
2017-10-28T02:48:16.291Z,8.50
2017-10-28T02:50:44.000Z,8.50
2017-10-28T02:53:11.669Z,8.60
2017-10-28T02:55:39.356Z,8.60
2017-10-28T02:58:07.004Z,8.70
2017-10-28T03:00:34.749Z,8.70
2017-10-28T03:03:02.412Z,8.70
2017-10-28T03:05:30.167Z,8.70
2017-10-28T03:07:57.827Z,8.80
2017-10-28T03:10:25.583Z,8.60
2017-10-28T03:12:53.239Z,8.70
2017-10-28T03:15:20.956Z,8.80
2017-10-28T03:17:48.628Z,8.90
2017-10-28T03:20:17.144Z,9.00
2017-10-28T03:22:44.845Z,8.90
2017-10-28T03:25:12.547Z,9.00
2017-10-28T03:27:40.959Z,8.90
2017-10-28T03:30:08.700Z,8.90
2017-10-28T03:32:36.358Z,8.90
2017-10-28T03:35:04.120Z,8.90
2017-10-28T03:37:31.770Z,9.00
2017-10-28T03:39:59.469Z,9.00
2017-10-28T03:42:27.115Z,9.00
2017-10-28T03:44:54.769Z,9.00
2017-10-28T03:47:22.464Z,9.00
2017-10-28T03:49:50.116Z,9.00
2017-10-28T03:52:17.809Z,8.90
2017-10-28T03:54:46.232Z,9.00
2017-10-28T03:57:13.935Z,9.00
2017-10-28T03:59:41.591Z,9.00
2017-10-28T04:02:09.284Z,9.00
2017-10-28T04:04:36.931Z,9.00
2017-10-28T04:07:05.387Z,9.10
2017-10-28T04:09:33.041Z,9.10
2017-10-28T04:12:00.740Z,9.10
2017-10-28T04:14:28.395Z,9.10
2017-10-28T04:16:56.091Z,9.10
2017-10-28T04:19:23.739Z,9.10
2017-10-28T04:21:51.435Z,9.10
2017-10-28T04:24:19.098Z,9.10
2017-10-28T04:26:46.811Z,9.10
2017-10-28T04:29:14.479Z,9.10
2017-10-28T04:31:42.176Z,9.00
2017-10-28T04:34:09.866Z,9.10
2017-10-28T04:36:38.387Z,9.00
2017-10-28T04:39:06.103Z,9.00
2017-10-28T04:41:34.594Z,9.00
2017-10-28T04:44:02.251Z,9.00
2017-10-28T04:46:29.953Z,9.00
2017-10-28T04:48:57.614Z,9.00
2017-10-28T04:51:25.315Z,9.00
2017-10-28T04:53:53.751Z,9.00
2017-10-28T04:56:22.219Z,9.00
2017-10-28T04:58:49.896Z,9.00
2017-10-28T05:01:17.626Z,9.10
2017-10-28T05:03:45.299Z,9.00
2017-10-28T05:06:12.996Z,9.00
2017-10-28T05:08:40.666Z,9.00
2017-10-28T05:11:09.138Z,9.10
2017-10-28T05:13:36.844Z,9.00
2017-10-28T05:16:04.562Z,9.10
2017-10-28T05:18:33.061Z,9.10
2017-10-28T05:21:00.925Z,9.10
2017-10-28T05:23:28.574Z,9.10
2017-10-28T05:25:56.314Z,9.10
2017-10-28T05:28:23.958Z,9.10
2017-10-28T05:30:51.647Z,9.10
2017-10-28T05:33:20.075Z,8.90
2017-10-28T05:35:47.772Z,8.90
2017-10-28T05:38:15.419Z,8.90
2017-10-28T05:40:43.107Z,8.80
2017-10-28T05:43:11.564Z,8.80
2017-10-28T05:45:39.315Z,8.80
2017-10-28T05:48:07.016Z,8.90
2017-10-28T05:50:35.501Z,9.10
2017-10-28T05:53:03.182Z,9.00
2017-10-28T05:55:30.892Z,9.00
2017-10-28T05:57:58.600Z,9.00
2017-10-28T06:00:26.276Z,9.00
2017-10-28T06:02:53.980Z,9.00
2017-10-28T06:05:22.435Z,9.10
2017-10-28T06:07:50.121Z,9.10
2017-10-28T06:10:18.547Z,9.00
2017-10-28T06:12:46.244Z,9.00
2017-10-28T06:15:13.907Z,9.00
2017-10-28T06:17:41.604Z,8.80
2017-10-28T06:20:09.259Z,8.80
2017-10-28T06:22:36.968Z,8.90
2017-10-28T06:25:04.633Z,8.90
2017-10-28T06:27:32.327Z,9.00
2017-10-28T06:29:59.977Z,8.90
2017-10-28T06:32:28.444Z,8.80
2017-10-28T06:34:56.890Z,8.80
2017-10-28T06:37:24.591Z,8.80
2017-10-28T06:39:53.011Z,8.90
2017-10-28T06:42:20.703Z,8.90
2017-10-28T06:44:48.367Z,9.00
2017-10-28T06:47:16.071Z,9.00
2017-10-28T06:49:43.723Z,9.00
2017-10-28T06:52:11.422Z,9.00
2017-10-28T06:54:39.086Z,9.00
2017-10-28T06:57:06.823Z,8.90
2017-10-28T06:59:34.475Z,8.90
2017-10-28T07:02:02.189Z,8.80
2017-10-28T07:04:29.843Z,8.80
2017-10-28T07:06:57.540Z,8.80
2017-10-28T07:09:25.240Z,8.80
2017-10-28T07:11:52.960Z,8.80
2017-10-28T07:14:20.636Z,8.70
2017-10-28T07:16:48.348Z,8.80
2017-10-28T07:19:16.020Z,8.80
2017-10-28T07:21:44.487Z,8.90
2017-10-28T07:24:12.181Z,8.90
2017-10-28T07:26:39.871Z,8.90
2017-10-28T07:29:07.538Z,8.90
2017-10-28T07:31:36.013Z,8.90
2017-10-28T07:34:03.685Z,9.00
2017-10-28T07:36:31.394Z,9.00
2017-10-28T07:38:59.058Z,9.00
2017-10-28T07:41:26.763Z,9.00
2017-10-28T07:43:54.414Z,9.00
2017-10-28T07:46:22.118Z,9.00
2017-10-28T07:48:50.536Z,9.20
2017-10-28T07:51:18.250Z,9.20
2017-10-28T07:53:46.672Z,9.20
2017-10-28T07:56:14.374Z,9.20
2017-10-28T07:58:42.041Z,9.20
2017-10-28T08:01:10.512Z,9.20
2017-10-28T08:06:41.005Z,9.30
2017-10-28T08:09:08.694Z,9.30
2017-10-28T08:11:36.390Z,9.40
2017-10-28T08:14:04.806Z,9.40
2017-10-28T08:16:32.500Z,9.40
2017-10-28T08:19:00.156Z,9.40
2017-10-28T08:21:27.849Z,9.40
2017-10-28T08:23:56.268Z,9.40
2017-10-28T08:26:23.972Z,9.40
2017-10-28T08:28:51.624Z,9.50
2017-10-28T08:31:19.328Z,9.50
2017-10-28T08:33:46.982Z,9.60
2017-10-28T08:36:14.680Z,9.60
2017-10-28T08:38:42.327Z,9.60
2017-10-28T08:41:09.980Z,9.70
2017-10-28T08:43:37.701Z,9.60
2017-10-28T08:46:06.172Z,9.70
2017-10-28T08:48:34.677Z,9.70
2017-10-28T08:51:02.364Z,9.70
2017-10-28T08:53:30.059Z,9.70
2017-10-28T08:55:57.727Z,9.80
2017-10-28T08:58:26.208Z,9.80
2017-10-28T09:00:54.645Z,9.80
2017-10-28T09:03:22.351Z,9.80
2017-10-28T09:05:50.777Z,9.80
2017-10-28T09:08:18.470Z,9.80
2017-10-28T09:10:46.126Z,9.70
2017-10-28T09:13:13.825Z,9.70
2017-10-28T09:15:41.486Z,9.80
2017-10-28T09:18:09.220Z,9.80
2017-10-28T09:20:37.647Z,9.80
2017-10-28T09:23:05.339Z,9.80
2017-10-28T09:25:32.995Z,9.80
2017-10-28T09:28:00.689Z,9.80
2017-10-28T09:30:28.345Z,9.90
2017-10-28T09:32:56.801Z,9.90
2017-10-28T09:35:24.447Z,9.90
2017-10-28T09:37:52.139Z,10.00
2017-10-28T09:40:20.590Z,10.00
2017-10-28T09:42:48.292Z,10.00
2017-10-28T09:45:15.951Z,10.10
2017-10-28T09:47:43.650Z,10.10
2017-10-28T09:50:11.324Z,10.10
2017-10-28T09:52:39.032Z,10.10
2017-10-28T09:55:06.688Z,10.10
2017-10-28T09:57:34.383Z,10.10
2017-10-28T10:00:02.039Z,10.20
2017-10-28T10:02:29.748Z,10.20
2017-10-28T10:04:58.168Z,10.20
2017-10-28T10:07:25.884Z,10.20
2017-10-28T10:09:54.319Z,10.30
2017-10-28T10:12:22.024Z,10.30
2017-10-28T10:14:50.452Z,10.30
2017-10-28T10:17:18.154Z,10.30
2017-10-28T10:19:45.811Z,10.40
2017-10-28T10:22:13.514Z,10.40
2017-10-28T10:24:41.197Z,10.40
2017-10-28T10:27:08.896Z,10.40
2017-10-28T10:29:37.428Z,10.50
2017-10-28T10:32:05.127Z,10.50
2017-10-28T10:34:32.800Z,10.50
2017-10-28T10:37:01.263Z,10.50
2017-10-28T10:39:28.926Z,10.50
2017-10-28T10:41:56.631Z,10.50
2017-10-28T10:44:24.316Z,10.50
2017-10-28T10:46:52.020Z,10.40
2017-10-28T10:49:20.440Z,10.50
2017-10-28T10:51:48.155Z,10.50
2017-10-28T10:54:16.591Z,10.50
2017-10-28T10:56:44.259Z,10.50
2017-10-28T10:59:11.959Z,10.60
2017-10-28T11:01:40.404Z,10.60
2017-10-28T11:04:08.385Z,10.60
2017-10-28T11:06:36.054Z,10.60
2017-10-28T11:09:04.584Z,10.70
2017-10-28T11:11:32.234Z,10.70
2017-10-28T11:13:59.932Z,10.70
2017-10-28T11:16:27.593Z,10.80
2017-10-28T11:18:55.323Z,10.80
2017-10-28T11:21:23.006Z,10.80
2017-10-28T11:23:50.703Z,10.90
2017-10-28T11:26:19.129Z,10.90
2017-10-28T11:28:46.826Z,10.80
2017-10-28T11:31:15.239Z,10.80
2017-10-28T11:33:42.947Z,10.90
2017-10-28T11:36:10.636Z,10.90
2017-10-28T11:38:39.108Z,10.90
2017-10-28T11:41:07.544Z,11.00
2017-10-28T11:43:35.239Z,11.00
2017-10-28T11:46:03.674Z,11.00
2017-10-28T11:48:31.388Z,11.00
2017-10-28T11:50:59.813Z,11.00
2017-10-28T11:53:27.506Z,11.00
2017-10-28T11:55:55.159Z,11.10
2017-10-28T11:58:22.861Z,11.10
2017-10-28T12:00:50.517Z,11.10
2017-10-28T12:03:19.000Z,11.00
2017-10-28T12:05:47.041Z,11.00
2017-10-28T12:08:14.761Z,11.00
2017-10-28T12:10:43.236Z,11.00
2017-10-28T12:13:11.144Z,11.00
2017-10-28T12:15:39.729Z,11.00
2017-10-28T12:18:07.797Z,11.00
2017-10-28T12:20:35.494Z,11.00
2017-10-28T12:23:03.204Z,10.90
2017-10-28T12:25:30.875Z,11.00
2017-10-28T12:27:59.493Z,11.20
2017-10-28T12:30:27.168Z,11.10
2017-10-28T12:32:54.867Z,11.10
2017-10-28T12:35:23.286Z,11.10
2017-10-28T12:37:50.993Z,11.10
2017-10-28T12:40:18.664Z,11.10
2017-10-28T12:42:47.139Z,11.20
2017-10-28T12:45:14.804Z,11.20
2017-10-28T12:47:43.274Z,11.30
2017-10-28T12:50:10.951Z,11.20
2017-10-28T12:52:39.436Z,11.20
2017-10-28T12:55:07.095Z,11.20
2017-10-28T12:57:35.564Z,11.30
2017-10-28T13:00:04.042Z,11.20
2017-10-28T13:02:32.507Z,11.20
2017-10-28T13:05:00.165Z,11.10
2017-10-28T13:07:27.873Z,11.20
2017-10-28T13:09:55.539Z,11.10
2017-10-28T13:12:23.246Z,11.10
2017-10-28T13:14:51.680Z,11.20
2017-10-28T13:17:19.370Z,11.10
2017-10-28T13:19:47.072Z,11.20
2017-10-28T13:22:14.727Z,11.20
2017-10-28T13:24:42.433Z,11.20
2017-10-28T13:27:10.131Z,11.20
2017-10-28T13:29:38.595Z,11.10
2017-10-28T13:32:06.383Z,11.10
2017-10-28T13:34:34.852Z,11.10
2017-10-28T13:37:03.291Z,11.10
2017-10-28T13:39:30.991Z,11.10
2017-10-28T13:41:59.412Z,11.20
2017-10-28T13:44:27.117Z,11.20
2017-10-28T13:46:55.544Z,11.40
2017-10-28T13:49:23.243Z,11.30
2017-10-28T13:51:50.903Z,11.40
2017-10-28T13:54:18.600Z,11.40
2017-10-28T13:56:46.264Z,11.30
2017-10-28T13:59:13.967Z,11.40
2017-10-28T14:01:41.631Z,11.40
2017-10-28T14:04:09.329Z,11.30
2017-10-28T14:06:37.767Z,11.30
2017-10-28T14:09:05.480Z,11.30
2017-10-28T14:11:33.136Z,11.20
2017-10-28T14:14:00.836Z,11.20
2017-10-28T14:16:28.494Z,11.10
2017-10-28T14:18:56.204Z,11.10
2017-10-28T14:21:24.629Z,11.20
2017-10-28T14:23:52.349Z,11.20
2017-10-28T14:26:20.008Z,11.20
2017-10-28T14:28:47.709Z,11.20
2017-10-28T14:31:15.370Z,11.30
2017-10-28T14:33:43.076Z,11.20
2017-10-28T14:36:11.500Z,11.20
2017-10-28T14:38:39.211Z,11.20
2017-10-28T14:41:07.638Z,11.20
2017-10-28T14:43:35.341Z,11.10
2017-10-28T14:46:03.768Z,11.20
2017-10-28T14:48:31.472Z,11.20
2017-10-28T14:50:59.904Z,11.20
2017-10-28T14:53:27.606Z,11.20
2017-10-28T14:55:55.275Z,11.20
2017-10-28T14:58:23.743Z,11.20
2017-10-28T15:00:51.414Z,11.10
2017-10-28T15:03:19.887Z,11.10
2017-10-28T15:05:47.540Z,11.10
2017-10-28T15:08:15.235Z,11.10
2017-10-28T15:10:42.898Z,11.10
2017-10-28T15:13:10.605Z,11.00
2017-10-28T15:15:38.251Z,11.00
2017-10-28T15:18:05.948Z,10.90
2017-10-28T15:20:34.368Z,10.90
2017-10-28T15:23:02.049Z,10.90
2017-10-28T15:25:29.743Z,10.90
2017-10-28T15:27:58.171Z,10.80
2017-10-28T15:30:25.903Z,10.80
2017-10-28T15:32:53.556Z,10.80
2017-10-28T15:35:22.015Z,10.80
2017-10-28T15:37:49.675Z,10.80
2017-10-28T15:40:18.147Z,10.80
2017-10-28T15:42:45.795Z,10.80
2017-10-28T15:45:13.495Z,10.80
2017-10-28T15:47:41.149Z,10.70
2017-10-28T15:50:09.656Z,10.70
2017-10-28T15:52:37.320Z,10.60
2017-10-28T15:55:05.030Z,10.60
2017-10-28T15:57:33.455Z,10.60
2017-10-28T16:00:01.151Z,10.60
2017-10-28T16:02:28.803Z,10.50
2017-10-28T16:04:56.495Z,10.50
2017-10-28T16:07:24.916Z,10.50
2017-10-28T16:09:52.608Z,10.50
2017-10-28T16:12:20.353Z,10.40
2017-10-28T16:14:48.009Z,10.50
2017-10-28T16:17:15.704Z,10.50
2017-10-28T16:19:44.126Z,10.60
2017-10-28T16:22:11.826Z,10.60
2017-10-28T16:24:39.479Z,10.50
2017-10-28T16:27:07.191Z,10.60
2017-10-28T16:29:34.866Z,10.50
2017-10-28T16:32:02.563Z,10.60
2017-10-28T16:34:30.231Z,10.60
2017-10-28T16:36:57.948Z,10.50
2017-10-28T16:39:25.603Z,10.50
2017-10-28T16:41:53.308Z,10.50
2017-10-28T16:44:20.977Z,10.50
2017-10-28T16:46:49.447Z,10.50
2017-10-28T16:49:17.115Z,10.50
2017-10-28T16:51:45.584Z,10.50
2017-10-28T16:54:13.248Z,10.50
2017-10-28T16:56:40.959Z,10.50
2017-10-28T16:59:08.623Z,10.40
2017-10-28T17:01:36.324Z,10.50
2017-10-28T17:04:04.011Z,10.50
2017-10-28T17:06:31.724Z,10.50
2017-10-28T17:08:59.403Z,10.50
2017-10-28T17:11:27.142Z,10.50
2017-10-28T17:13:54.795Z,10.50
2017-10-28T17:16:22.492Z,10.50
2017-10-28T17:18:50.922Z,10.50
2017-10-28T17:21:18.629Z,10.50
2017-10-28T17:23:47.054Z,10.50
2017-10-28T17:26:14.860Z,10.40
2017-10-28T17:28:42.637Z,10.50
2017-10-28T17:31:11.064Z,10.50
2017-10-28T17:33:38.776Z,10.50
2017-10-28T17:36:07.202Z,10.50
2017-10-28T17:38:35.281Z,10.50
2017-10-28T17:41:02.933Z,10.50
2017-10-28T17:43:30.631Z,10.50
2017-10-28T17:45:59.061Z,10.50
2017-10-28T17:48:26.756Z,10.50
2017-10-28T17:50:54.409Z,10.50
2017-10-28T17:53:22.111Z,10.50
2017-10-28T17:55:49.779Z,10.60
2017-10-28T17:58:17.476Z,10.60
2017-10-28T18:00:45.148Z,10.60
2017-10-28T18:03:12.861Z,10.70
2017-10-28T18:05:40.511Z,10.70
2017-10-28T18:08:08.240Z,10.70
2017-10-28T18:10:35.903Z,10.70
2017-10-28T18:13:03.572Z,10.80
2017-10-28T18:15:32.067Z,10.80
2017-10-28T18:17:59.727Z,10.80
2017-10-28T18:20:27.427Z,10.80
2017-10-28T18:22:55.088Z,10.90
2017-10-28T18:25:22.795Z,10.90
2017-10-28T18:27:51.223Z,10.90
2017-10-28T18:30:18.928Z,10.90
2017-10-28T18:32:47.357Z,10.90
2017-10-28T18:35:15.060Z,10.90
2017-10-28T18:37:43.489Z,10.90
2017-10-28T18:40:11.191Z,10.90
2017-10-28T18:42:39.630Z,10.90
2017-10-28T18:45:08.095Z,10.90
2017-10-28T18:47:35.779Z,10.90
2017-10-28T18:50:03.504Z,10.90
2017-10-28T18:52:31.199Z,11.00
2017-10-28T18:54:58.920Z,11.00
2017-10-28T18:57:26.584Z,11.00
2017-10-28T18:59:54.288Z,11.00
2017-10-28T19:02:21.952Z,11.00
2017-10-28T19:04:49.665Z,11.00
2017-10-28T19:07:17.331Z,11.00
2017-10-28T19:09:45.036Z,11.00
2017-10-28T19:12:12.708Z,11.00
2017-10-28T19:14:41.166Z,11.00
2017-10-28T19:17:08.827Z,11.00
2017-10-28T19:19:36.522Z,11.00
2017-10-28T19:22:04.946Z,11.00
2017-10-28T19:24:32.657Z,11.00
2017-10-28T19:27:01.085Z,11.00
2017-10-28T19:29:28.790Z,11.00
2017-10-28T19:31:57.225Z,11.00
2017-10-28T19:34:24.950Z,11.00
2017-10-28T19:36:52.603Z,10.90
2017-10-28T19:39:20.310Z,10.90
2017-10-28T19:41:47.989Z,10.90
2017-10-28T19:44:15.693Z,10.90
2017-10-28T19:46:43.353Z,10.90
2017-10-28T19:49:11.075Z,11.00
2017-10-28T19:51:39.504Z,10.90
2017-10-28T19:54:07.202Z,10.90
2017-10-28T19:56:34.910Z,10.90
2017-10-28T19:59:02.662Z,10.90
2017-10-28T20:01:30.324Z,10.90
2017-10-28T20:03:58.040Z,10.90
2017-10-28T20:06:25.748Z,10.90
2017-10-28T20:08:53.412Z,11.00
2017-10-28T20:11:21.136Z,11.00
2017-10-28T20:13:49.581Z,11.00
2017-10-28T20:16:17.304Z,11.00
2017-10-28T20:18:44.963Z,11.00
2017-10-28T20:21:12.672Z,11.00
2017-10-28T20:23:40.328Z,11.00
2017-10-28T20:26:08.063Z,11.00
2017-10-28T20:28:35.741Z,11.00
2017-10-28T20:31:03.457Z,11.00
2017-10-28T20:33:31.145Z,11.00
2017-10-28T20:35:58.873Z,11.00
2017-10-28T20:38:26.555Z,11.00
2017-10-28T20:40:54.278Z,11.00
2017-10-28T20:43:22.713Z,11.10
2017-10-28T20:45:50.416Z,11.00
2017-10-28T20:48:18.857Z,11.00
2017-10-28T20:50:46.560Z,11.00
2017-10-28T20:53:14.988Z,11.00
2017-10-28T20:55:42.687Z,11.00
2017-10-28T20:58:11.139Z,11.00
2017-10-28T21:00:38.850Z,11.00
2017-10-28T21:03:06.516Z,11.00
2017-10-28T21:05:34.244Z,11.00
2017-10-28T21:08:02.693Z,11.00
2017-10-28T21:10:30.399Z,11.00
2017-10-28T21:12:58.061Z,11.00
2017-10-28T21:15:25.861Z,11.00
2017-10-28T21:17:53.516Z,11.00
2017-10-28T21:20:21.223Z,11.00
2017-10-28T21:22:49.645Z,11.00
2017-10-28T21:25:17.353Z,10.90
2017-10-28T21:27:45.018Z,11.00
2017-10-28T21:30:13.491Z,11.00
2017-10-28T21:32:41.921Z,10.90
2017-10-28T21:35:09.639Z,10.90
2017-10-28T21:37:38.855Z,11.00
2017-10-28T21:40:06.671Z,11.00
2017-10-28T21:42:34.659Z,11.00
2017-10-28T21:45:04.272Z,11.00
2017-10-28T21:47:32.744Z,11.10
2017-10-28T21:50:01.258Z,11.10
2017-10-28T21:52:28.924Z,11.10
2017-10-28T21:54:56.635Z,11.10
2017-10-28T21:57:25.071Z,11.10
2017-10-28T21:59:52.774Z,11.10
2017-10-28T22:02:20.565Z,11.10
2017-10-28T22:04:48.274Z,11.10
2017-10-28T22:07:15.932Z,11.10
2017-10-28T22:09:43.660Z,11.10
2017-10-28T22:12:11.324Z,11.10
2017-10-28T22:14:39.054Z,11.00
2017-10-28T22:17:06.711Z,11.00
2017-10-28T22:19:35.187Z,10.90
2017-10-28T22:22:03.623Z,10.90
2017-10-28T22:24:31.323Z,10.90
2017-10-28T22:26:59.787Z,10.90
2017-10-28T22:29:27.450Z,10.80
2017-10-28T22:31:55.932Z,10.90
2017-10-28T22:34:24.388Z,10.90
2017-10-28T22:36:52.385Z,10.90
2017-10-28T22:39:20.063Z,11.00
2017-10-28T22:41:47.988Z,10.90
2017-10-28T22:44:15.660Z,10.90
2017-10-28T22:46:44.130Z,11.00
2017-10-28T22:49:11.810Z,11.00
2017-10-28T22:51:40.311Z,11.00
2017-10-28T22:54:07.977Z,11.00
2017-10-28T22:56:35.695Z,11.00
2017-10-28T22:59:04.124Z,11.10
2017-10-28T23:01:31.830Z,11.10
2017-10-28T23:04:00.270Z,11.00
2017-10-28T23:06:27.971Z,11.00
2017-10-28T23:08:56.391Z,11.00
2017-10-28T23:11:24.181Z,11.00
2017-10-28T23:13:53.181Z,11.10
2017-10-28T23:16:21.492Z,11.00
2017-10-28T23:18:49.509Z,11.00
2017-10-28T23:21:17.255Z,11.00
2017-10-28T23:23:44.953Z,11.00
2017-10-28T23:26:12.699Z,10.90
2017-10-28T23:28:40.389Z,10.90
2017-10-28T23:31:08.855Z,10.90
2017-10-28T23:33:36.510Z,10.90
2017-10-28T23:36:04.226Z,10.90
2017-10-28T23:38:31.898Z,10.90
2017-10-28T23:40:59.611Z,10.90
2017-10-28T23:43:28.035Z,10.80
2017-10-28T23:45:55.751Z,10.80
2017-10-28T23:48:24.178Z,10.80
2017-10-28T23:50:51.883Z,10.80
2017-10-28T23:53:20.310Z,10.90
2017-10-28T23:55:48.016Z,10.90
2017-10-28T23:58:16.435Z,10.90
